Time;durP1;ratioP1;P1;durP2;ratioP2;P2;SDS_P1;SDS_P2;PMS_P1;PMS_P2;Temp;Humidity;BMP_temperature;BMP_pressure;BME280_temperature;BME280_humidity;BME280_pressure;Samples;Min_cycle;Max_cycle;Signal;HPM_P1;HPM_P2
2022/04/17 00:01:05;;;;;;;;;;;19.90;34.90;;;;;;5074220;28;19928;-49
2022/04/17 00:03:31;;;;;;;;;;;19.90;34.90;;;;;;5076297;28;19921;-47
2022/04/17 00:05:58;;;;;;;;;;;19.90;34.90;;;;;;5075233;28;19954;-47
2022/04/17 00:08:27;;;;;;;;;;;19.90;34.90;;;;;;5076766;28;20354;-46
2022/04/17 00:10:53;;;;;;;;;;;19.90;34.90;;;;;;5078080;28;19920;-45
2022/04/17 00:13:21;;;;;;;;;;;19.90;34.90;;;;;;5067670;28;19921;-46
2022/04/17 00:15:49;;;;;;;;;;;19.90;34.90;;;;;;5065201;28;20024;-45
2022/04/17 00:18:16;;;;;;;;;;;19.90;34.90;;;;;;5077754;28;19998;-45
2022/04/17 00:20:43;;;;;;;;;;;19.90;34.90;;;;;;5077110;28;19924;-45
2022/04/17 00:23:10;;;;;;;;;;;19.90;34.90;;;;;;5075206;28;19920;-47
2022/04/17 00:25:38;;;;;;;;;;;19.90;34.90;;;;;;5066001;28;19921;-51
2022/04/17 00:28:06;;;;;;;;;;;19.90;34.90;;;;;;5068415;28;20341;-51
2022/04/17 00:30:33;;;;;;;;;;;19.90;34.90;;;;;;5068977;28;19921;-47
2022/04/17 00:33:00;;;;;;;;;;;19.90;34.90;;;;;;5068009;28;19928;-50
2022/04/17 00:35:27;;;;;;;;;;;19.90;34.90;;;;;;5051456;28;19920;-46
2022/04/17 00:37:53;;;;;;;;;;;19.90;34.90;;;;;;5071483;28;20277;-47
2022/04/17 00:40:20;;;;;;;;;;;19.90;34.90;;;;;;5066175;28;20035;-46
2022/04/17 00:42:48;;;;;;;;;;;19.90;34.90;;;;;;5073109;28;20389;-45
2022/04/17 00:45:15;;;;;;;;;;;19.90;34.90;;;;;;5069813;28;19927;-47
2022/04/17 00:47:42;;;;;;;;;;;19.90;34.90;;;;;;5069867;28;19920;-46
2022/04/17 00:50:09;;;;;;;;;;;19.90;34.90;;;;;;5074469;28;19920;-45
2022/04/17 00:52:36;;;;;;;;;;;20.00;35.00;;;;;;5076029;28;19999;-50
2022/04/17 00:55:04;;;;;;;;;;;19.90;34.90;;;;;;5066769;28;20354;-48
2022/04/17 00:57:31;;;;;;;;;;;19.90;34.90;;;;;;5065679;28;19921;-46
2022/04/17 00:59:59;;;;;;;;;;;19.90;34.90;;;;;;5071934;28;20026;-51
2022/04/17 01:02:26;;;;;;;;;;;19.90;34.90;;;;;;5069126;28;19943;-50
2022/04/17 01:04:53;;;;;;;;;;;19.90;34.90;;;;;;5074884;28;19924;-47
2022/04/17 01:07:21;;;;;;;;;;;19.90;34.90;;;;;;5071446;28;20316;-51
2022/04/17 01:09:48;;;;;;;;;;;19.90;34.90;;;;;;5066123;28;19936;-50
2022/04/17 01:12:17;;;;;;;;;;;19.90;34.90;;;;;;5062298;28;20359;-47
2022/04/17 01:14:44;;;;;;;;;;;19.90;34.90;;;;;;5074384;28;19966;-50
2022/04/17 01:17:12;;;;;;;;;;;19.90;34.90;;;;;;5069880;28;20011;-52
2022/04/17 01:19:39;;;;;;;;;;;19.90;34.90;;;;;;5060523;28;19928;-46
2022/04/17 01:22:08;;;;;;;;;;;19.90;34.90;;;;;;5065818;28;19920;-45
2022/04/17 01:27:20;;;;;;;;;;;19.90;34.90;;;;;;5058885;28;19943;-48
2022/04/17 01:29:46;;;;;;;;;;;19.90;35.00;;;;;;5085713;28;20023;-50
2022/04/17 01:32:13;;;;;;;;;;;19.90;34.90;;;;;;5072912;28;19927;-52
2022/04/17 01:34:40;;;;;;;;;;;20.00;35.00;;;;;;5072576;28;19944;-46
2022/04/17 01:37:08;;;;;;;;;;;20.00;35.00;;;;;;5062246;28;19927;-46
2022/04/17 01:39:35;;;;;;;;;;;19.90;35.00;;;;;;5080847;28;19999;-48
2022/04/17 01:42:02;;;;;;;;;;;19.90;34.90;;;;;;5075571;28;20309;-50
2022/04/17 01:44:29;;;;;;;;;;;20.00;35.10;;;;;;5060630;28;19928;-50
2022/04/17 01:46:56;;;;;;;;;;;19.90;34.90;;;;;;5060026;28;19921;-50
2022/04/17 01:49:23;;;;;;;;;;;19.90;35.00;;;;;;5072393;28;19964;-45
2022/04/17 01:51:51;;;;;;;;;;;20.00;35.10;;;;;;5060049;28;19990;-52
2022/04/17 01:54:19;;;;;;;;;;;19.90;35.00;;;;;;5062976;28;20166;-47
2022/04/17 01:56:47;;;;;;;;;;;19.90;35.00;;;;;;5084031;28;20019;-45
2022/04/17 01:59:14;;;;;;;;;;;20.00;35.10;;;;;;5077650;28;19935;-48
2022/04/17 02:01:41;;;;;;;;;;;20.00;35.10;;;;;;5061631;28;20307;-47
2022/04/17 02:04:08;;;;;;;;;;;20.00;35.10;;;;;;5075011;28;19920;-47
2022/04/17 02:06:35;;;;;;;;;;;20.00;35.10;;;;;;5070552;28;19921;-48
2022/04/17 02:09:02;;;;;;;;;;;20.00;35.10;;;;;;5066682;28;19964;-46
2022/04/17 02:11:30;;;;;;;;;;;20.00;35.10;;;;;;5067159;28;19921;-46
2022/04/17 02:13:57;;;;;;;;;;;19.90;35.00;;;;;;5069115;28;19943;-50
2022/04/17 02:16:24;;;;;;;;;;;20.00;35.10;;;;;;5067975;28;19928;-49
2022/04/17 02:18:52;;;;;;;;;;;20.00;35.10;;;;;;5070368;28;19927;-52
2022/04/17 02:21:18;;;;;;;;;;;19.90;35.00;;;;;;5091062;28;20007;-49
2022/04/17 02:23:45;;;;;;;;;;;20.00;35.10;;;;;;5071048;28;19932;-48
2022/04/17 02:26:12;;;;;;;;;;;20.00;35.10;;;;;;5071896;28;19920;-47
2022/04/17 02:28:41;;;;;;;;;;;20.00;35.10;;;;;;5063255;28;20346;-46
2022/04/17 02:31:08;;;;;;;;;;;20.00;35.10;;;;;;5072409;28;20350;-47
2022/04/17 02:33:35;;;;;;;;;;;20.00;35.10;;;;;;5063611;28;19921;-48
2022/04/17 02:36:02;;;;;;;;;;;20.00;35.10;;;;;;5065904;28;19921;-49
2022/04/17 02:38:29;;;;;;;;;;;20.00;35.10;;;;;;5072323;28;19974;-50
2022/04/17 02:40:56;;;;;;;;;;;20.00;35.10;;;;;;5075000;28;19920;-47
2022/04/17 02:43:22;;;;;;;;;;;20.00;35.10;;;;;;5065719;28;19920;-49
2022/04/17 02:45:53;;;;;;;;;;;20.00;35.10;;;;;;5073691;28;20059;-47
2022/04/17 02:48:20;;;;;;;;;;;20.00;35.10;;;;;;5061767;28;19924;-49
2022/04/17 02:50:47;;;;;;;;;;;20.00;35.10;;;;;;5074291;28;20277;-52
2022/04/17 02:53:14;;;;;;;;;;;19.90;35.00;;;;;;5073788;28;19924;-48
2022/04/17 02:55:41;;;;;;;;;;;20.00;35.10;;;;;;5064980;28;19925;-50
2022/04/17 02:58:07;;;;;;;;;;;20.00;35.20;;;;;;5062956;28;19974;-47
2022/04/17 03:05:35;;;;;;;;;;;20.00;35.20;;;;;;5073336;28;19942;-51
2022/04/17 03:06:03;;;;;;;;;;;20.00;35.10;;;;;;5039271;28;20254;-49
2022/04/17 03:08:31;;;;;;;;;;;19.90;35.10;;;;;;5067547;28;19943;-48
2022/04/17 03:10:57;;;;;;;;;;;20.00;35.10;;;;;;5083073;28;19924;-50
2022/04/17 03:13:24;;;;;;;;;;;20.00;35.20;;;;;;5064260;28;19921;-49
2022/04/17 03:15:51;;;;;;;;;;;20.00;35.10;;;;;;5044739;28;19925;-47
2022/04/17 03:18:18;;;;;;;;;;;20.00;35.20;;;;;;5089938;28;19920;-49
2022/04/17 03:20:46;;;;;;;;;;;20.00;35.20;;;;;;5067842;28;19966;-48
2022/04/17 03:23:14;;;;;;;;;;;20.00;35.20;;;;;;5086426;28;20301;-48
2022/04/17 03:25:41;;;;;;;;;;;19.90;35.00;;;;;;5063318;28;20399;-54
2022/04/17 03:28:08;;;;;;;;;;;20.00;35.20;;;;;;5089863;28;19930;-51
2022/04/17 03:30:34;;;;;;;;;;;20.00;35.10;;;;;;5063423;28;19946;-52
2022/04/17 03:33:02;;;;;;;;;;;20.00;35.20;;;;;;5067613;28;20250;-50
2022/04/17 03:35:30;;;;;;;;;;;20.00;35.10;;;;;;5043264;28;19974;-48
2022/04/17 03:38:00;;;;;;;;;;;20.00;35.20;;;;;;5073842;28;19943;-53
2022/04/17 03:40:26;;;;;;;;;;;20.00;35.10;;;;;;5066504;28;19920;-50
2022/04/17 03:42:53;;;;;;;;;;;20.00;35.10;;;;;;5083854;28;19956;-50
2022/04/17 03:45:20;;;;;;;;;;;20.00;35.20;;;;;;5064158;28;19928;-45
2022/04/17 03:47:47;;;;;;;;;;;20.00;35.10;;;;;;5067531;28;20011;-47
2022/04/17 03:50:14;;;;;;;;;;;20.00;35.10;;;;;;5069283;28;19943;-49
2022/04/17 03:52:40;;;;;;;;;;;20.00;35.10;;;;;;5066702;28;19935;-48
2022/04/17 03:55:09;;;;;;;;;;;20.00;35.20;;;;;;5064526;28;20015;-48
2022/04/17 03:57:36;;;;;;;;;;;20.00;35.10;;;;;;5060365;28;19921;-50
2022/04/17 04:00:04;;;;;;;;;;;20.00;35.10;;;;;;5068702;28;19942;-48
2022/04/17 04:02:31;;;;;;;;;;;20.00;35.10;;;;;;5070311;28;19929;-48
2022/04/17 04:04:57;;;;;;;;;;;20.00;35.20;;;;;;5077592;28;19925;-48
2022/04/17 04:07:24;;;;;;;;;;;20.00;35.10;;;;;;5065504;28;19927;-51
2022/04/17 04:09:51;;;;;;;;;;;20.00;35.10;;;;;;5062058;28;19920;-46
2022/04/17 04:12:20;;;;;;;;;;;19.90;35.10;;;;;;5064326;28;19921;-50
2022/04/17 04:14:46;;;;;;;;;;;20.00;35.20;;;;;;5061628;28;19959;-47
2022/04/17 04:17:13;;;;;;;;;;;20.00;35.10;;;;;;5069381;28;20353;-51
2022/04/17 04:19:40;;;;;;;;;;;20.00;35.20;;;;;;5059388;28;19925;-47
2022/04/17 04:22:07;;;;;;;;;;;20.00;35.10;;;;;;5062772;28;20380;-49
2022/04/17 04:24:34;;;;;;;;;;;20.00;35.20;;;;;;5089455;28;19969;-46
2022/04/17 04:29:47;;;;;;;;;;;20.00;35.10;;;;;;5089815;28;19920;-49
2022/04/17 04:32:13;;;;;;;;;;;20.00;35.10;;;;;;5068975;28;20020;-49
2022/04/17 04:34:40;;;;;;;;;;;19.90;35.00;;;;;;5068101;28;19927;-49
2022/04/17 04:37:07;;;;;;;;;;;20.00;35.20;;;;;;5064644;28;19943;-45
2022/04/17 04:39:34;;;;;;;;;;;20.00;35.10;;;;;;5063923;28;19921;-53
2022/04/17 04:42:01;;;;;;;;;;;19.90;35.00;;;;;;5064210;28;19921;-45
2022/04/17 04:44:28;;;;;;;;;;;20.00;35.20;;;;;;5070663;28;19928;-46
2022/04/17 04:46:57;;;;;;;;;;;20.00;35.10;;;;;;5068997;28;20023;-47
2022/04/17 04:49:33;;;;;;;;;;;20.00;35.10;;;;;;5068181;28;19921;-48
2022/04/17 04:52:00;;;;;;;;;;;20.00;35.10;;;;;;5089660;28;19970;-45
2022/04/17 04:54:27;;;;;;;;;;;20.00;35.10;;;;;;5064749;28;20007;-47
2022/04/17 04:56:54;;;;;;;;;;;20.00;35.10;;;;;;5063955;28;19920;-52
2022/04/17 04:59:22;;;;;;;;;;;20.00;35.10;;;;;;5071369;28;19921;-46
2022/04/17 05:01:48;;;;;;;;;;;20.00;35.10;;;;;;5060185;28;20332;-46
2022/04/17 05:04:17;;;;;;;;;;;20.00;35.10;;;;;;5066737;28;20292;-45
2022/04/17 05:06:44;;;;;;;;;;;20.00;35.10;;;;;;5071433;28;19924;-45
2022/04/17 05:09:11;;;;;;;;;;;20.00;35.10;;;;;;5071101;28;19920;-49
2022/04/17 05:11:38;;;;;;;;;;;20.00;35.10;;;;;;5064542;28;20380;-49
2022/04/17 05:14:06;;;;;;;;;;;20.00;35.10;;;;;;5066780;28;19966;-47
2022/04/17 05:16:33;;;;;;;;;;;19.90;35.00;;;;;;5063417;28;19967;-49
2022/04/17 05:21:45;;;;;;;;;;;20.00;35.10;;;;;;5067522;28;19956;-47
2022/04/17 05:24:12;;;;;;;;;;;20.00;35.10;;;;;;5078670;28;19926;-52
2022/04/17 05:26:39;;;;;;;;;;;20.00;35.10;;;;;;5061560;28;19921;-47
2022/04/17 05:29:06;;;;;;;;;;;20.00;35.10;;;;;;5086614;28;20338;-52
2022/04/17 05:31:33;;;;;;;;;;;20.00;35.10;;;;;;5066105;28;20320;-47
2022/04/17 05:34:00;;;;;;;;;;;20.00;35.10;;;;;;5073993;28;19987;-51
2022/04/17 05:36:27;;;;;;;;;;;20.00;35.10;;;;;;5068038;28;19920;-48
2022/04/17 05:38:56;;;;;;;;;;;20.00;35.10;;;;;;5070480;28;19932;-45
2022/04/17 05:41:22;;;;;;;;;;;20.00;35.10;;;;;;5067524;28;19921;-48
2022/04/17 05:43:49;;;;;;;;;;;20.00;35.10;;;;;;5079726;28;19982;-50
2022/04/17 05:46:16;;;;;;;;;;;20.00;35.10;;;;;;5069266;28;19920;-50
2022/04/17 05:48:43;;;;;;;;;;;20.00;35.10;;;;;;5074516;28;19928;-48
2022/04/17 05:51:09;;;;;;;;;;;20.00;35.10;;;;;;5066992;28;19921;-48
2022/04/17 05:53:36;;;;;;;;;;;20.00;35.10;;;;;;5060620;28;19925;-45
2022/04/17 05:56:05;;;;;;;;;;;20.00;35.10;;;;;;5064440;28;19928;-47
2022/04/17 05:58:32;;;;;;;;;;;20.00;35.10;;;;;;5074100;28;20272;-47
2022/04/17 06:01:02;;;;;;;;;;;20.00;35.10;;;;;;5074399;28;19931;-45
2022/04/17 06:03:29;;;;;;;;;;;20.00;35.10;;;;;;5066272;28;20019;-47
2022/04/17 06:05:56;;;;;;;;;;;20.00;35.10;;;;;;5066182;28;19933;-47
2022/04/17 06:08:23;;;;;;;;;;;20.00;35.10;;;;;;5068237;28;19927;-45
2022/04/17 06:10:50;;;;;;;;;;;20.00;35.10;;;;;;5067590;28;19931;-48
2022/04/17 06:13:19;;;;;;;;;;;20.00;35.10;;;;;;5071267;28;19924;-48
2022/04/17 06:15:46;;;;;;;;;;;20.00;35.20;;;;;;5064045;28;20012;-47
2022/04/17 06:18:12;;;;;;;;;;;20.00;35.10;;;;;;5084220;28;19928;-49
2022/04/17 06:20:39;;;;;;;;;;;20.00;35.20;;;;;;5063651;28;19925;-48
2022/04/17 06:23:06;;;;;;;;;;;20.00;35.10;;;;;;5063522;28;19924;-50
2022/04/17 06:25:33;;;;;;;;;;;20.00;35.10;;;;;;5090897;28;19924;-49
2022/04/17 06:28:00;;;;;;;;;;;20.00;35.10;;;;;;5071042;28;20015;-50
2022/04/17 06:30:28;;;;;;;;;;;20.00;35.10;;;;;;5066410;28;20018;-49
2022/04/17 06:32:55;;;;;;;;;;;20.00;35.10;;;;;;5076591;28;19920;-51
2022/04/17 06:35:22;;;;;;;;;;;20.00;35.10;;;;;;5067957;28;19927;-48
2022/04/17 06:37:49;;;;;;;;;;;20.00;35.20;;;;;;5069338;28;19933;-48
2022/04/17 06:40:17;;;;;;;;;;;20.00;35.20;;;;;;5062856;28;19925;-52
2022/04/17 06:42:44;;;;;;;;;;;20.00;35.10;;;;;;5064273;28;19930;-47
2022/04/17 06:45:11;;;;;;;;;;;20.00;35.20;;;;;;5094158;28;19927;-54
2022/04/17 06:47:43;;;;;;;;;;;20.00;35.20;;;;;;5073040;28;19973;-48
2022/04/17 06:50:10;;;;;;;;;;;20.00;35.20;;;;;;5064990;28;20011;-49
2022/04/17 06:52:37;;;;;;;;;;;20.00;35.20;;;;;;5089902;28;20377;-47
2022/04/17 06:55:05;;;;;;;;;;;20.00;35.20;;;;;;5063325;28;19928;-49
2022/04/17 06:57:32;;;;;;;;;;;20.00;35.20;;;;;;5073857;28;20007;-51
2022/04/17 06:59:58;;;;;;;;;;;20.00;35.20;;;;;;5060179;28;19920;-49
2022/04/17 07:02:25;;;;;;;;;;;20.00;35.20;;;;;;5067987;28;20015;-50
2022/04/17 07:04:53;;;;;;;;;;;20.00;35.20;;;;;;5058129;28;19924;-49
2022/04/17 07:07:22;;;;;;;;;;;20.00;35.20;;;;;;5067328;28;20027;-50
2022/04/17 07:09:49;;;;;;;;;;;20.00;35.20;;;;;;5072528;28;20483;-49
2022/04/17 07:12:16;;;;;;;;;;;20.00;35.20;;;;;;5066403;28;20345;-49
2022/04/17 07:14:43;;;;;;;;;;;20.00;35.20;;;;;;5064231;28;19932;-48
2022/04/17 07:17:10;;;;;;;;;;;20.00;35.20;;;;;;5066452;28;20553;-52
2022/04/17 07:19:37;;;;;;;;;;;20.00;35.20;;;;;;5071381;28;19924;-47
2022/04/17 07:22:06;;;;;;;;;;;20.00;35.20;;;;;;5063461;28;19929;-49
2022/04/17 07:24:32;;;;;;;;;;;20.00;35.20;;;;;;5058907;28;19978;-47
2022/04/17 07:27:00;;;;;;;;;;;20.00;35.80;;;;;;5067574;28;19988;-47
2022/04/17 07:29:27;;;;;;;;;;;20.00;35.20;;;;;;5060953;28;20010;-49
2022/04/17 07:31:54;;;;;;;;;;;20.00;35.20;;;;;;5068199;28;19924;-49
2022/04/17 07:34:20;;;;;;;;;;;20.00;35.20;;;;;;5068000;28;19928;-47
2022/04/17 07:36:48;;;;;;;;;;;20.00;35.20;;;;;;5069427;28;20014;-51
2022/04/17 07:39:17;;;;;;;;;;;20.00;35.80;;;;;;5073369;28;19994;-48
2022/04/17 07:41:44;;;;;;;;;;;20.00;35.20;;;;;;5065553;28;20028;-48
2022/04/17 07:44:12;;;;;;;;;;;20.00;35.20;;;;;;5064143;28;19925;-46
2022/04/17 07:46:39;;;;;;;;;;;20.00;35.20;;;;;;5063080;28;19927;-45
2022/04/17 07:49:06;;;;;;;;;;;20.00;35.20;;;;;;5067898;28;19967;-46
2022/04/17 07:51:32;;;;;;;;;;;20.00;35.20;;;;;;5067691;28;20491;-47
2022/04/17 07:53:59;;;;;;;;;;;20.00;35.20;;;;;;5057903;28;20019;-49
2022/04/17 07:56:27;;;;;;;;;;;20.00;35.20;;;;;;5085253;28;19920;-49
2022/04/17 07:58:59;;;;;;;;;;;20.00;35.20;;;;;;5095324;28;19920;-49
2022/04/17 08:01:27;;;;;;;;;;;20.00;35.10;;;;;;5076732;28;19909;-50
2022/04/17 08:03:54;;;;;;;;;;;20.00;35.10;;;;;;5078466;28;20011;-50
2022/04/17 08:06:21;;;;;;;;;;;20.00;35.00;;;;;;5065532;28;19979;-49
2022/04/17 08:08:50;;;;;;;;;;;20.00;34.90;;;;;;5060714;28;19963;-47
2022/04/17 08:11:17;;;;;;;;;;;20.00;34.90;;;;;;5070310;28;19970;-46
2022/04/17 08:13:46;;;;;;;;;;;20.00;34.80;;;;;;5076605;28;19927;-46
2022/04/17 08:16:13;;;;;;;;;;;20.00;34.70;;;;;;5082719;28;19931;-50
2022/04/17 08:18:40;;;;;;;;;;;20.00;34.70;;;;;;5070184;28;20010;-51
2022/04/17 08:21:07;;;;;;;;;;;20.00;34.60;;;;;;5066584;28;19925;-49
2022/04/17 08:23:35;;;;;;;;;;;20.00;34.50;;;;;;5065900;28;20051;-49
2022/04/17 08:26:01;;;;;;;;;;;20.00;34.40;;;;;;5067870;28;19975;-47
2022/04/17 08:28:28;;;;;;;;;;;20.00;34.20;;;;;;5072925;28;20015;-50
2022/04/17 08:30:56;;;;;;;;;;;20.00;34.10;;;;;;5075434;28;19977;-50
2022/04/17 08:33:24;;;;;;;;;;;20.00;34.10;;;;;;5090767;28;19920;-49
2022/04/17 08:35:50;;;;;;;;;;;19.90;33.90;;;;;;5075038;28;19920;-48
2022/04/17 08:38:19;;;;;;;;;;;19.90;33.80;;;;;;5091178;28;20299;-48
2022/04/17 08:40:46;;;;;;;;;;;19.90;33.80;;;;;;5068729;28;20329;-47
2022/04/17 08:43:13;;;;;;;;;;;19.90;33.70;;;;;;5067505;28;19921;-47
2022/04/17 08:45:40;;;;;;;;;;;19.90;33.60;;;;;;5075580;28;19920;-47
2022/04/17 08:48:08;;;;;;;;;;;19.90;33.50;;;;;;5084402;28;20032;-45
2022/04/17 08:50:35;;;;;;;;;;;19.90;33.50;;;;;;5062639;28;20019;-46
2022/04/17 08:53:02;;;;;;;;;;;19.90;33.40;;;;;;5074832;28;19986;-49
2022/04/17 08:55:29;;;;;;;;;;;19.90;33.40;;;;;;5068199;28;19921;-48
2022/04/17 08:57:55;;;;;;;;;;;19.90;33.40;;;;;;5081542;28;19950;-46
2022/04/17 09:00:22;;;;;;;;;;;19.90;33.30;;;;;;5068571;28;19974;-49
2022/04/17 09:02:49;;;;;;;;;;;19.90;33.20;;;;;;5063058;28;19925;-46
2022/04/17 09:05:18;;;;;;;;;;;19.90;33.10;;;;;;5072741;28;19984;-46
2022/04/17 09:07:46;;;;;;;;;;;19.90;33.00;;;;;;5064323;28;19938;-45
2022/04/17 09:10:12;;;;;;;;;;;19.90;32.90;;;;;;5073323;28;19928;-49
2022/04/17 09:12:39;;;;;;;;;;;19.90;32.90;;;;;;5065776;28;19921;-48
2022/04/17 09:15:09;;;;;;;;;;;19.80;32.80;;;;;;5073823;28;20346;-48
2022/04/17 09:17:36;;;;;;;;;;;19.80;32.70;;;;;;5075328;28;20022;-46
2022/04/17 09:20:03;;;;;;;;;;;19.80;32.60;;;;;;5081034;28;20362;-48
2022/04/17 09:22:33;;;;;;;;;;;19.80;32.50;;;;;;5080642;28;19924;-49
2022/04/17 09:25:11;;;;;;;;;;;19.80;32.50;;;;;;5088261;28;19925;-49
2022/04/17 09:27:41;;;;;;;;;;;19.80;32.40;;;;;;5073116;28;19921;-47
2022/04/17 09:30:12;;;;;;;;;;;19.80;32.30;;;;;;5072985;28;19951;-45
2022/04/17 09:32:38;;;;;;;;;;;19.80;32.30;;;;;;5061135;28;20015;-52
2022/04/17 09:35:06;;;;;;;;;;;19.80;32.20;;;;;;5068392;28;19967;-51
2022/04/17 09:37:35;;;;;;;;;;;19.80;32.20;;;;;;5060964;28;19970;-47
2022/04/17 09:40:06;;;;;;;;;;;19.80;32.10;;;;;;5057666;28;20031;-44
2022/04/17 09:42:33;;;;;;;;;;;19.80;32.00;;;;;;5067818;28;19928;-49
2022/04/17 09:45:00;;;;;;;;;;;19.80;31.90;;;;;;5071653;28;19963;-47
2022/04/17 09:47:27;;;;;;;;;;;19.80;31.90;;;;;;5071242;28;19932;-49
2022/04/17 09:49:55;;;;;;;;;;;19.70;31.70;;;;;;5072854;28;19995;-49
2022/04/17 09:52:22;;;;;;;;;;;19.80;31.60;;;;;;5069017;28;19920;-51
2022/04/17 09:54:50;;;;;;;;;;;19.80;31.60;;;;;;5065341;28;19947;-46
2022/04/17 09:57:20;;;;;;;;;;;19.70;31.40;;;;;;5069200;28;20374;-47
2022/04/17 09:59:47;;;;;;;;;;;19.70;31.40;;;;;;5066843;28;19940;-45
2022/04/17 10:02:15;;;;;;;;;;;19.70;31.40;;;;;;5061521;28;19925;-47
2022/04/17 10:04:42;;;;;;;;;;;19.70;31.30;;;;;;5071095;28;20011;-48
2022/04/17 10:07:09;;;;;;;;;;;19.80;31.30;;;;;;5060778;28;19934;-46
2022/04/17 10:09:36;;;;;;;;;;;19.70;31.30;;;;;;5074544;28;19932;-45
2022/04/17 10:12:05;;;;;;;;;;;19.70;31.40;;;;;;5067545;28;19920;-49
2022/04/17 10:14:32;;;;;;;;;;;19.70;31.50;;;;;;5058402;28;19921;-47
2022/04/17 10:16:59;;;;;;;;;;;19.70;31.60;;;;;;5066504;28;19981;-45
2022/04/17 10:19:27;;;;;;;;;;;19.80;31.80;;;;;;5066355;28;19924;-46
2022/04/17 10:21:54;;;;;;;;;;;19.70;31.80;;;;;;5063222;28;20019;-46
2022/04/17 10:24:22;;;;;;;;;;;19.80;32.00;;;;;;5074192;28;19955;-53
2022/04/17 10:26:49;;;;;;;;;;;19.80;32.10;;;;;;5063353;28;19956;-45
2022/04/17 10:29:18;;;;;;;;;;;19.80;32.10;;;;;;5069697;28;19928;-53
2022/04/17 10:31:48;;;;;;;;;;;19.80;32.20;;;;;;5072398;28;20042;-49
2022/04/17 10:34:33;;;;;;;;;;;19.80;32.20;;;;;;5072237;28;19924;-53
2022/04/17 10:37:12;;;;;;;;;;;19.80;32.20;;;;;;5038528;28;19956;-50
2022/04/17 10:39:40;;;;;;;;;;;19.80;32.30;;;;;;5066655;28;19929;-46
2022/04/17 10:42:08;;;;;;;;;;;19.80;32.40;;;;;;5065524;28;20019;-48
2022/04/17 10:44:38;;;;;;;;;;;19.80;32.40;;;;;;5068610;28;19924;-48
2022/04/17 10:47:05;;;;;;;;;;;19.80;32.40;;;;;;5078938;28;19928;-49
2022/04/17 10:49:32;;;;;;;;;;;19.80;32.50;;;;;;5071838;28;19921;-51
2022/04/17 10:51:59;;;;;;;;;;;19.80;32.50;;;;;;5071498;28;19947;-50
2022/04/17 10:54:26;;;;;;;;;;;19.80;32.50;;;;;;5067846;28;19926;-50
2022/04/17 10:57:00;;;;;;;;;;;19.80;32.50;;;;;;5076369;28;19942;-48
2022/04/17 10:59:30;;;;;;;;;;;19.80;32.60;;;;;;5072000;28;20083;-51
2022/04/17 11:02:02;;;;;;;;;;;19.80;32.60;;;;;;5069794;28;19931;-44
2022/04/17 11:04:29;;;;;;;;;;;19.80;32.70;;;;;;5077793;28;19931;-46
2022/04/17 11:07:15;;;;;;;;;;;19.80;32.60;;;;;;5073228;28;19927;-47
2022/04/17 11:09:42;;;;;;;;;;;19.80;32.70;;;;;;5078331;28;19920;-45
2022/04/17 11:12:20;;;;;;;;;;;19.80;32.30;;;;;;5068168;28;19920;-50
2022/04/17 11:14:53;;;;;;;;;;;19.90;32.90;;;;;;5079507;28;20023;-46
2022/04/17 11:17:22;;;;;;;;;;;19.90;33.00;;;;;;5082576;28;19967;-47
2022/04/17 11:19:49;;;;;;;;;;;19.90;33.00;;;;;;5072400;28;19920;-47
2022/04/17 11:22:16;;;;;;;;;;;19.90;33.10;;;;;;5069700;28;20411;-47
2022/04/17 11:25:02;;;;;;;;;;;19.90;33.10;;;;;;5080170;28;19973;-48
2022/04/17 11:27:35;;;;;;;;;;;19.90;33.20;;;;;;5074470;28;19931;-46
2022/04/17 11:30:02;;;;;;;;;;;19.90;33.30;;;;;;5078186;28;20002;-50
2022/04/17 11:32:47;;;;;;;;;;;20.00;33.50;;;;;;5069659;28;19920;-45
2022/04/17 11:35:15;;;;;;;;;;;20.00;33.50;;;;;;5071544;28;19920;-49
2022/04/17 11:37:51;;;;;;;;;;;20.00;33.50;;;;;;5077384;28;19932;-48
2022/04/17 11:40:19;;;;;;;;;;;20.00;33.40;;;;;;5059829;28;19968;-48
2022/04/17 11:42:48;;;;;;;;;;;20.00;33.40;;;;;;5059673;28;21500;-45
2022/04/17 11:45:15;;;;;;;;;;;20.00;33.50;;;;;;5061194;28;19943;-47
2022/04/17 11:47:42;;;;;;;;;;;20.00;33.40;;;;;;5079012;28;20277;-48
2022/04/17 11:50:12;;;;;;;;;;;20.00;33.40;;;;;;5064425;28;20331;-49
2022/04/17 11:52:39;;;;;;;;;;;20.00;33.40;;;;;;5084570;28;20031;-50
2022/04/17 11:55:06;;;;;;;;;;;20.00;33.40;;;;;;5065042;28;19920;-48
2022/04/17 11:57:33;;;;;;;;;;;20.00;33.40;;;;;;5070073;28;19974;-52
2022/04/17 12:00:00;;;;;;;;;;;20.00;33.40;;;;;;5070565;28;19920;-46
2022/04/17 12:02:28;;;;;;;;;;;20.00;33.50;;;;;;5061087;28;20461;-52
2022/04/17 12:04:55;;;;;;;;;;;20.00;33.50;;;;;;5060978;28;20060;-46
2022/04/17 12:07:24;;;;;;;;;;;20.00;33.50;;;;;;5066382;28;19920;-53
2022/04/17 12:09:51;;;;;;;;;;;20.00;33.50;;;;;;5080988;28;19970;-49
2022/04/17 12:12:18;;;;;;;;;;;20.00;33.50;;;;;;5081904;28;19924;-49
2022/04/17 12:14:45;;;;;;;;;;;20.00;33.50;;;;;;5058407;28;20024;-52
2022/04/17 12:17:12;;;;;;;;;;;20.00;33.50;;;;;;5084536;28;19920;-48
2022/04/17 12:19:39;;;;;;;;;;;20.00;33.50;;;;;;5063139;28;19932;-48
2022/04/17 12:22:06;;;;;;;;;;;20.00;33.50;;;;;;5069138;28;19996;-49
2022/04/17 12:24:34;;;;;;;;;;;20.00;33.50;;;;;;5035553;28;19932;-50
2022/04/17 12:27:01;;;;;;;;;;;20.00;33.50;;;;;;5063388;28;19920;-49
2022/04/17 12:29:28;;;;;;;;;;;20.00;33.50;;;;;;5054798;28;19924;-46
2022/04/17 12:31:54;;;;;;;;;;;20.00;33.50;;;;;;5061918;28;19949;-47
2022/04/17 12:34:22;;;;;;;;;;;20.00;33.50;;;;;;5068402;28;19921;-48
2022/04/17 12:36:49;;;;;;;;;;;20.00;33.50;;;;;;5054807;28;19927;-49
2022/04/17 12:39:16;;;;;;;;;;;20.00;33.50;;;;;;5051918;28;19921;-48
2022/04/17 12:41:46;;;;;;;;;;;20.00;33.50;;;;;;5055113;28;19921;-51
2022/04/17 12:44:13;;;;;;;;;;;20.00;33.50;;;;;;5069310;28;19928;-48
2022/04/17 12:46:43;;;;;;;;;;;20.00;33.50;;;;;;5073002;28;19946;-50
2022/04/17 12:49:10;;;;;;;;;;;20.00;34.10;;;;;;5072216;28;19924;-51
2022/04/17 12:51:37;;;;;;;;;;;20.00;33.50;;;;;;5072110;28;20434;-48
2022/04/17 12:54:05;;;;;;;;;;;20.00;33.50;;;;;;5071933;28;20007;-52
2022/04/17 12:56:31;;;;;;;;;;;20.00;33.50;;;;;;5071009;28;19920;-51
2022/04/17 12:59:00;;;;;;;;;;;20.00;33.50;;;;;;5059454;28;19960;-51
2022/04/17 13:01:28;;;;;;;;;;;20.00;33.50;;;;;;5064905;28;20388;-51
2022/04/17 13:04:06;;;;;;;;;;;20.00;33.50;;;;;;5071481;28;19931;-50
2022/04/17 13:06:33;;;;;;;;;;;20.00;33.50;;;;;;5071673;28;19921;-49
2022/04/17 13:09:12;;;;;;;;;;;20.00;33.60;;;;;;5074353;28;19948;-51
2022/04/17 13:11:43;;;;;;;;;;;20.00;33.60;;;;;;5064389;28;19935;-50
2022/04/17 13:14:11;;;;;;;;;;;20.00;33.60;;;;;;5054028;28;19920;-47
2022/04/17 13:16:48;;;;;;;;;;;20.00;33.60;;;;;;5071277;28;19948;-52
2022/04/17 13:19:15;;;;;;;;;;;20.00;33.60;;;;;;5054803;28;19980;-51
2022/04/17 13:21:42;;;;;;;;;;;20.00;33.60;;;;;;5069015;28;19921;-50
2022/04/17 13:24:10;;;;;;;;;;;20.00;33.60;;;;;;5075285;28;19924;-47
2022/04/17 13:26:37;;;;;;;;;;;20.00;33.60;;;;;;5073700;28;19952;-48
2022/04/17 13:29:04;;;;;;;;;;;20.00;33.60;;;;;;5071661;28;19996;-51
2022/04/17 13:31:32;;;;;;;;;;;20.00;33.60;;;;;;5069599;28;19927;-53
2022/04/17 13:33:59;;;;;;;;;;;20.00;33.60;;;;;;5086878;28;19927;-49
2022/04/17 13:36:25;;;;;;;;;;;20.00;33.60;;;;;;5087718;28;19920;-48
2022/04/17 13:38:52;;;;;;;;;;;20.00;33.60;;;;;;5073981;28;19966;-51
2022/04/17 13:41:19;;;;;;;;;;;20.00;33.60;;;;;;5063158;28;19924;-47
2022/04/17 13:43:46;;;;;;;;;;;20.00;33.70;;;;;;5087953;28;19924;-48
2022/04/17 13:46:12;;;;;;;;;;;20.00;33.60;;;;;;5069335;28;19974;-48
2022/04/17 13:48:42;;;;;;;;;;;20.00;33.70;;;;;;5064789;28;19932;-46
2022/04/17 13:51:10;;;;;;;;;;;20.00;33.70;;;;;;5080203;28;19970;-49
2022/04/17 13:53:37;;;;;;;;;;;20.00;33.70;;;;;;5073979;28;19925;-50
2022/04/17 13:56:04;;;;;;;;;;;20.00;33.70;;;;;;5074256;28;20047;-47
2022/04/17 13:58:31;;;;;;;;;;;20.00;33.70;;;;;;5074746;28;19971;-48
2022/04/17 14:00:57;;;;;;;;;;;20.00;33.70;;;;;;5074924;28;19920;-46
2022/04/17 14:03:24;;;;;;;;;;;20.00;33.70;;;;;;5074379;28;20428;-48
2022/04/17 14:05:52;;;;;;;;;;;20.00;33.70;;;;;;5076823;28;19925;-46
2022/04/17 14:08:19;;;;;;;;;;;20.10;33.80;;;;;;5072853;28;19925;-50
2022/04/17 14:10:46;;;;;;;;;;;20.00;33.70;;;;;;5064178;28;19947;-48
2022/04/17 14:13:12;;;;;;;;;;;20.00;33.70;;;;;;5075087;28;20285;-50
2022/04/17 14:15:39;;;;;;;;;;;20.00;33.70;;;;;;5074396;28;20015;-46
2022/04/17 14:18:06;;;;;;;;;;;20.10;33.80;;;;;;5075792;28;19947;-49
2022/04/17 14:20:34;;;;;;;;;;;20.10;33.80;;;;;;5073515;28;19970;-46
2022/04/17 14:23:02;;;;;;;;;;;20.10;33.80;;;;;;5065585;28;19966;-49
2022/04/17 14:25:29;;;;;;;;;;;20.10;33.80;;;;;;5072530;28;19935;-49
2022/04/17 14:27:58;;;;;;;;;;;20.10;33.90;;;;;;5075718;28;19978;-47
2022/04/17 14:30:25;;;;;;;;;;;20.10;33.90;;;;;;5075023;28;20273;-48